createdAt,value
2023-03-13T00:00:31.621Z,4.65
2023-03-13T00:03:37.494Z,4.53
2023-03-13T00:06:42.499Z,4.25
2023-03-13T00:09:51.328Z,4.47
2023-03-13T00:12:55.507Z,5.07
2023-03-13T00:16:02.686Z,4.75
2023-03-13T00:19:07.522Z,4.97
2023-03-13T00:22:13.514Z,4.50
2023-03-13T00:28:25.298Z,4.07
2023-03-13T00:31:31.537Z,5.18
2023-03-13T00:34:37.658Z,4.95
2023-03-13T00:37:43.458Z,3.92
2023-03-13T00:40:51.249Z,4.43
2023-03-13T00:43:56.280Z,4.53
2023-03-13T00:47:02.393Z,5.63
2023-03-13T00:50:07.411Z,4.05
2023-03-13T00:53:13.320Z,4.10
2023-03-13T00:59:26.051Z,3.72
2023-03-13T01:02:29.961Z,4.57
2023-03-13T01:05:35.957Z,5.28
2023-03-13T01:08:39.883Z,3.83
2023-03-13T01:11:48.009Z,5.95
2023-03-13T01:14:52.376Z,3.95
2023-03-13T01:18:01.349Z,3.72
2023-03-13T01:24:11.960Z,5.07
2023-03-13T01:27:18.002Z,3.50
2023-03-13T01:30:24.045Z,3.30
2023-03-13T01:33:27.957Z,5.13
2023-03-13T01:36:34.420Z,3.42
2023-03-13T01:39:38.497Z,4.07
2023-03-13T01:42:54.192Z,3.67
2023-03-13T01:46:13.086Z,4.80
2023-03-13T01:49:37.554Z,3.92
2023-03-13T01:53:00.317Z,4.15
2023-03-13T01:56:13.428Z,4.15
2023-03-13T01:59:23.255Z,3.40
2023-03-13T02:02:31.240Z,3.42
2023-03-13T02:05:36.105Z,3.83
2023-03-13T02:08:48.670Z,3.53
2023-03-13T02:11:58.825Z,3.97
2023-03-13T02:15:10.681Z,2.85
2023-03-13T02:18:15.556Z,3.60
2023-03-13T02:21:34.266Z,3.10
2023-03-13T02:24:45.654Z,3.30
2023-03-13T02:27:56.882Z,3.15
2023-03-13T02:31:01.588Z,2.50
2023-03-13T02:34:09.615Z,3.20
2023-03-13T02:37:15.214Z,3.47
2023-03-13T02:40:25.841Z,3.40
2023-03-13T02:43:34.277Z,2.70
2023-03-13T02:46:49.682Z,2.72
2023-03-13T02:49:55.317Z,2.78
2023-03-13T02:53:05.225Z,2.78
2023-03-13T02:56:09.608Z,2.90
2023-03-13T02:59:18.270Z,4.55
2023-03-13T03:02:24.457Z,2.47
2023-03-13T03:05:32.181Z,2.45
2023-03-13T03:08:40.808Z,2.30
2023-03-13T03:11:52.281Z,2.88
2023-03-13T03:14:58.678Z,3.53
2023-03-13T03:18:05.105Z,2.40
2023-03-13T03:24:18.394Z,2.30
2023-03-13T03:27:22.383Z,2.30
2023-03-13T03:30:34.357Z,2.17
2023-03-13T03:33:39.981Z,2.53
2023-03-13T03:36:49.746Z,2.28
2023-03-13T03:39:53.893Z,2.13
2023-03-13T03:43:00.227Z,2.90
2023-03-13T03:46:07.551Z,2.53
2023-03-13T03:49:13.872Z,3.03
2023-03-13T03:52:18.148Z,2.78
2023-03-13T03:55:24.394Z,2.55
2023-03-13T03:58:28.525Z,2.80
2023-03-13T04:01:47.306Z,3.60
2023-03-13T04:04:55.909Z,2.47
2023-03-13T04:08:08.956Z,2.30
2023-03-13T04:11:12.929Z,2.30
2023-03-13T04:14:23.011Z,2.50
2023-03-13T04:17:29.477Z,2.60
2023-03-13T04:20:36.233Z,2.88
2023-03-13T04:23:40.483Z,3.17
2023-03-13T04:26:46.573Z,4.55
2023-03-13T04:29:51.944Z,2.88
2023-03-13T04:33:14.947Z,2.85
2023-03-13T04:36:24.700Z,2.47
2023-03-13T04:39:44.125Z,3.17
2023-03-13T04:42:55.414Z,2.65
2023-03-13T04:46:30.427Z,2.25
2023-03-13T04:49:55.833Z,2.38
2023-03-13T04:53:15.443Z,2.50
2023-03-13T04:56:42.769Z,2.83
2023-03-13T05:00:09.733Z,2.53
2023-03-13T05:03:20.779Z,3.47
2023-03-13T05:06:39.182Z,2.35
2023-03-13T05:10:09.425Z,3.00
2023-03-13T05:13:24.857Z,2.45
2023-03-13T05:16:40.614Z,2.80
2023-03-13T05:20:10.147Z,2.67
2023-03-13T05:23:38.862Z,2.72
2023-03-13T05:27:03.480Z,3.25
2023-03-13T05:30:16.103Z,3.25
2023-03-13T05:33:42.474Z,3.20
2023-03-13T05:37:09.171Z,3.30
2023-03-13T05:40:26.072Z,4.20
2023-03-13T05:43:32.556Z,3.35
2023-03-13T05:46:58.586Z,3.80
2023-03-13T05:50:28.182Z,4.40
2023-03-13T05:53:34.241Z,4.80
2023-03-13T05:57:18.511Z,4.72
2023-03-13T06:00:59.789Z,6.07
2023-03-13T06:04:04.157Z,5.22
2023-03-13T06:07:13.925Z,4.97
2023-03-13T06:10:18.499Z,4.57
2023-03-13T06:13:26.949Z,4.85
2023-03-13T06:16:33.181Z,5.20
2023-03-13T06:19:57.152Z,5.15
2023-03-13T06:23:01.038Z,5.15
2023-03-13T06:26:07.312Z,4.85
2023-03-13T06:29:13.589Z,4.78
2023-03-13T06:32:19.587Z,4.78
2023-03-13T06:35:23.562Z,4.70
2023-03-13T06:38:30.514Z,4.53
2023-03-13T06:41:34.572Z,4.70
2023-03-13T06:44:42.553Z,4.35
2023-03-13T06:47:46.533Z,4.57
2023-03-13T06:50:53.645Z,5.22
2023-03-13T06:53:57.870Z,4.45
2023-03-13T06:57:03.986Z,5.28
2023-03-13T07:00:12.854Z,5.07
2023-03-13T07:03:18.746Z,4.28
2023-03-13T07:09:28.638Z,3.72
2023-03-13T07:15:40.891Z,3.30
2023-03-13T07:18:45.929Z,3.58
2023-03-13T07:21:52.514Z,3.78
2023-03-13T07:24:56.481Z,4.32
2023-03-13T07:28:02.481Z,3.40
2023-03-13T07:34:15.133Z,3.60
2023-03-13T07:40:24.752Z,3.30
2023-03-13T07:46:36.803Z,3.25
2023-03-13T07:49:43.481Z,3.58
2023-03-13T07:52:49.401Z,3.03
2023-03-13T07:58:59.672Z,2.70
2023-03-13T08:02:06.471Z,2.95
2023-03-13T08:05:12.391Z,2.85
2023-03-13T08:08:16.256Z,3.40
2023-03-13T08:11:24.578Z,3.15
2023-03-13T08:14:28.524Z,2.90
2023-03-13T08:17:36.580Z,2.65
2023-03-13T08:20:40.617Z,3.00
2023-03-13T08:23:46.862Z,2.55
2023-03-13T08:26:51.237Z,2.42
2023-03-13T08:29:57.311Z,2.08
2023-03-13T08:33:03.756Z,2.38
2023-03-13T08:36:13.004Z,2.70
2023-03-13T08:39:18.625Z,2.40
2023-03-13T08:42:25.200Z,2.33
2023-03-13T08:45:29.084Z,2.30
2023-03-13T08:48:37.156Z,2.38
2023-03-13T08:51:41.126Z,2.47
2023-03-13T08:54:48.721Z,2.20
2023-03-13T08:57:52.638Z,2.58
2023-03-13T09:01:03.663Z,2.97
2023-03-13T09:04:09.674Z,2.50
2023-03-13T09:07:16.042Z,2.65
2023-03-13T09:10:20.273Z,2.58
2023-03-13T09:13:27.476Z,2.05
2023-03-13T09:16:33.679Z,2.28
2023-03-13T09:19:50.689Z,2.40
2023-03-13T09:23:01.649Z,2.10
2023-03-13T09:26:08.202Z,2.67
2023-03-13T09:29:12.070Z,1.92
2023-03-13T09:32:19.861Z,1.67
2023-03-13T09:35:25.748Z,2.10
2023-03-13T09:38:32.120Z,1.77
2023-03-13T09:41:40.673Z,1.70
2023-03-13T09:44:51.731Z,1.60
2023-03-13T09:48:00.570Z,1.60
2023-03-13T09:51:16.833Z,1.90
2023-03-13T09:54:27.636Z,1.50
2023-03-13T09:57:36.148Z,1.40
2023-03-13T10:00:42.250Z,1.17
2023-03-13T10:04:00.228Z,1.30
2023-03-13T10:07:06.693Z,1.38
2023-03-13T10:10:17.938Z,1.60
2023-03-13T10:13:28.695Z,1.60
2023-03-13T10:16:40.559Z,1.17
2023-03-13T10:19:46.817Z,1.33
2023-03-13T10:22:59.929Z,1.30
2023-03-13T10:26:04.106Z,1.17
2023-03-13T10:29:23.710Z,2.35
2023-03-13T10:32:29.184Z,1.50
2023-03-13T10:35:37.374Z,2.50
2023-03-13T10:38:54.048Z,1.20
2023-03-13T10:42:10.418Z,1.13
2023-03-13T10:48:27.938Z,1.15
2023-03-13T10:51:38.179Z,1.30
2023-03-13T10:54:47.526Z,1.45
2023-03-13T10:57:59.925Z,1.05
2023-03-13T11:01:18.981Z,1.67
2023-03-13T11:04:31.919Z,1.60
2023-03-13T11:07:39.907Z,1.40
2023-03-13T11:10:59.298Z,1.55
2023-03-13T11:14:17.225Z,1.13
2023-03-13T11:17:31.366Z,1.50
2023-03-13T11:20:40.029Z,1.63
2023-03-13T11:23:51.661Z,1.48
2023-03-13T11:27:09.607Z,1.48
2023-03-13T11:30:23.300Z,1.17
2023-03-13T11:33:39.828Z,1.33
2023-03-13T11:36:53.463Z,1.33
2023-03-13T11:40:11.958Z,1.48
2023-03-13T11:43:33.676Z,1.58
2023-03-13T11:46:50.315Z,1.40
2023-03-13T11:50:06.336Z,1.50
2023-03-13T11:53:27.780Z,1.75
2023-03-13T11:56:37.067Z,1.88
2023-03-13T11:59:53.032Z,1.70
2023-03-13T12:06:15.914Z,1.88
2023-03-13T12:09:28.487Z,1.27
2023-03-13T12:12:47.202Z,1.45
2023-03-13T12:15:56.847Z,1.40
2023-03-13T12:19:03.048Z,1.30
2023-03-13T12:22:16.899Z,1.20
2023-03-13T12:25:28.250Z,1.05
2023-03-13T12:28:39.076Z,1.50
2023-03-13T12:31:52.448Z,0.90
2023-03-13T12:35:02.818Z,1.08
2023-03-13T12:38:18.796Z,1.38
2023-03-13T12:41:27.238Z,1.20
2023-03-13T12:44:34.003Z,1.10
2023-03-13T12:48:08.389Z,1.38
2023-03-13T12:51:28.593Z,1.20
2023-03-13T12:54:58.233Z,1.15
2023-03-13T12:58:19.765Z,1.67
2023-03-13T13:01:37.480Z,1.23
2023-03-13T13:04:48.253Z,1.02
2023-03-13T13:07:56.752Z,1.00
2023-03-13T13:11:33.020Z,1.48
2023-03-13T13:15:06.831Z,1.10
2023-03-13T13:18:25.999Z,1.00
2023-03-13T13:21:32.869Z,1.10
2023-03-13T13:24:43.173Z,1.30
2023-03-13T13:27:50.239Z,1.48
2023-03-13T13:30:58.289Z,1.17
2023-03-13T13:34:02.738Z,1.25
2023-03-13T13:37:28.454Z,1.30
2023-03-13T13:40:33.766Z,1.20
2023-03-13T13:43:41.350Z,1.00
2023-03-13T13:46:47.460Z,2.25
2023-03-13T13:49:55.686Z,1.85
2023-03-13T13:53:32.713Z,0.98
2023-03-13T13:56:44.374Z,1.10
2023-03-13T13:59:51.857Z,1.08
2023-03-13T14:02:59.007Z,1.48
2023-03-13T14:06:06.907Z,0.95
2023-03-13T14:09:24.028Z,1.20
2023-03-13T14:12:33.718Z,1.40
2023-03-13T14:15:44.450Z,0.80
2023-03-13T14:18:49.669Z,0.90
2023-03-13T14:22:01.182Z,1.10
2023-03-13T14:25:08.087Z,1.67
2023-03-13T14:28:25.013Z,1.20
2023-03-13T14:31:32.310Z,1.58
2023-03-13T14:34:38.443Z,1.13
2023-03-13T14:37:45.127Z,1.55
2023-03-13T14:40:54.803Z,1.35
2023-03-13T14:44:22.638Z,0.90
2023-03-13T14:47:31.003Z,1.08
2023-03-13T14:50:37.139Z,0.95
2023-03-13T14:53:54.684Z,1.00
2023-03-13T14:57:15.545Z,1.02
2023-03-13T15:00:36.146Z,1.40
2023-03-13T15:03:45.801Z,1.02
2023-03-13T15:07:03.911Z,1.75
2023-03-13T15:10:21.881Z,1.48
2023-03-13T15:13:36.379Z,1.58
2023-03-13T15:16:40.426Z,1.40
2023-03-13T15:19:50.403Z,1.95
2023-03-13T15:22:54.290Z,1.17
2023-03-13T15:26:00.228Z,1.42
2023-03-13T15:32:20.707Z,1.02
2023-03-13T15:35:28.949Z,1.58
2023-03-13T15:38:35.233Z,1.67
2023-03-13T15:41:39.257Z,1.48
2023-03-13T15:44:47.339Z,1.90
2023-03-13T15:47:51.685Z,1.70
2023-03-13T15:50:59.843Z,1.10
2023-03-13T15:54:03.948Z,1.70
2023-03-13T15:57:13.007Z,1.42
2023-03-13T16:00:22.031Z,1.67
2023-03-13T16:03:29.538Z,1.80
2023-03-13T16:06:33.665Z,2.15
2023-03-13T16:09:39.857Z,1.52
2023-03-13T16:12:44.028Z,1.77
2023-03-13T16:15:52.386Z,1.70
2023-03-13T16:18:57.346Z,2.15
2023-03-13T16:22:03.506Z,2.00
2023-03-13T16:25:09.208Z,1.92
2023-03-13T16:28:16.011Z,1.70
2023-03-13T16:31:23.926Z,1.98
2023-03-13T16:34:30.366Z,1.85
2023-03-13T16:37:34.530Z,1.77
2023-03-13T16:40:40.497Z,2.42
2023-03-13T16:43:44.732Z,2.30
2023-03-13T16:47:04.678Z,1.40
2023-03-13T16:50:22.624Z,2.25
2023-03-13T16:53:28.558Z,1.70
2023-03-13T16:59:39.334Z,1.80
2023-03-13T17:02:45.276Z,1.58
2023-03-13T17:05:51.311Z,2.13
2023-03-13T17:12:01.039Z,2.13
2023-03-13T17:18:13.526Z,1.90
2023-03-13T17:21:19.699Z,2.03
2023-03-13T17:24:25.886Z,2.63
2023-03-13T17:27:29.905Z,2.25
2023-03-13T17:30:35.828Z,1.95
2023-03-13T17:36:48.276Z,2.08
2023-03-13T17:39:52.793Z,2.30
2023-03-13T17:42:59.168Z,2.45
2023-03-13T17:46:03.526Z,2.22
2023-03-13T17:49:13.123Z,2.20
2023-03-13T17:52:17.916Z,3.70
2023-03-13T17:55:24.636Z,2.45
2023-03-13T17:58:28.525Z,2.67
2023-03-13T18:01:36.207Z,2.35
2023-03-13T18:04:42.860Z,2.67
2023-03-13T18:07:50.056Z,2.47
2023-03-13T18:10:53.924Z,2.60
2023-03-13T18:14:00.369Z,3.33
2023-03-13T18:17:04.353Z,3.20
2023-03-13T18:20:18.344Z,3.67
2023-03-13T18:23:22.205Z,3.00
2023-03-13T18:26:31.642Z,3.33
2023-03-13T18:29:35.467Z,3.60
2023-03-13T18:32:41.386Z,3.42
2023-03-13T18:38:53.202Z,2.83
2023-03-13T18:41:57.194Z,3.35
2023-03-13T18:45:03.134Z,3.83
2023-03-13T18:51:20.406Z,5.05
2023-03-13T18:54:24.528Z,3.72
2023-03-13T18:57:30.573Z,3.78
2023-03-13T19:03:42.404Z,4.15
2023-03-13T19:06:49.049Z,3.72
2023-03-13T19:09:55.594Z,3.13
2023-03-13T19:12:59.556Z,3.70
2023-03-13T19:16:05.739Z,3.47
2023-03-13T19:19:13.677Z,3.47
2023-03-13T19:22:21.566Z,2.97
2023-03-13T19:25:25.616Z,3.10
2023-03-13T19:28:31.490Z,3.60
2023-03-13T19:31:35.608Z,3.60
2023-03-13T19:34:41.530Z,3.42
2023-03-13T19:37:47.700Z,3.13
2023-03-13T19:40:53.616Z,3.15
2023-03-13T19:43:57.425Z,3.78
2023-03-13T19:47:03.516Z,3.38
2023-03-13T19:53:15.960Z,3.35
2023-03-13T19:56:22.285Z,4.10
2023-03-13T19:59:30.748Z,3.17
2023-03-13T20:02:34.625Z,3.22
2023-03-13T20:05:40.620Z,3.33
2023-03-13T20:11:52.539Z,3.83
2023-03-13T20:14:56.420Z,3.67
2023-03-13T20:18:02.584Z,3.55
2023-03-13T20:21:07.403Z,2.78
2023-03-13T20:24:15.749Z,3.88
2023-03-13T20:27:19.967Z,3.38
2023-03-13T20:30:26.026Z,3.72
2023-03-13T20:33:30.489Z,3.35
2023-03-13T20:36:36.395Z,4.70
2023-03-13T20:42:48.246Z,4.43
2023-03-13T20:45:52.623Z,4.97
2023-03-13T20:48:59.059Z,3.35
2023-03-13T20:52:03.943Z,3.63
2023-03-13T20:55:12.780Z,3.72
2023-03-13T20:58:16.786Z,4.32
2023-03-13T21:01:24.642Z,4.03
2023-03-13T21:04:28.879Z,4.57
2023-03-13T21:07:34.810Z,4.13
2023-03-13T21:13:47.116Z,4.00
2023-03-13T21:16:51.036Z,5.00
2023-03-13T21:19:57.312Z,3.83
2023-03-13T21:23:01.292Z,3.83
2023-03-13T21:26:09.205Z,4.53
2023-03-13T21:29:13.390Z,3.38
2023-03-13T21:32:19.694Z,4.32
2023-03-13T21:35:23.959Z,4.10
2023-03-13T21:38:29.937Z,3.88
2023-03-13T21:44:42.316Z,4.15
2023-03-13T21:50:53.556Z,5.00
2023-03-13T21:53:57.706Z,4.00
2023-03-13T21:57:06.970Z,4.47
2023-03-13T22:00:13.390Z,4.07
2023-03-13T22:03:19.324Z,4.13
2023-03-13T22:09:29.780Z,4.72
2023-03-13T22:15:45.568Z,3.95
2023-03-13T22:18:49.693Z,3.45
2023-03-13T22:21:55.565Z,4.68
2023-03-13T22:28:07.285Z,4.32
2023-03-13T22:31:13.072Z,3.80
2023-03-13T22:34:18.973Z,3.63
2023-03-13T22:40:32.162Z,4.18
2023-03-13T22:43:38.260Z,4.10
2023-03-13T22:46:44.222Z,3.78
2023-03-13T22:52:54.255Z,3.95
2023-03-13T22:55:58.274Z,4.05
2023-03-13T22:59:06.446Z,3.53
2023-03-13T23:02:10.358Z,3.78
2023-03-13T23:05:16.418Z,3.95
2023-03-13T23:08:22.540Z,3.20
2023-03-13T23:11:28.687Z,3.13
2023-03-13T23:14:36.551Z,3.30
2023-03-13T23:17:42.662Z,3.03
2023-03-13T23:20:46.505Z,2.53
2023-03-13T23:23:55.368Z,2.72
2023-03-13T23:26:59.504Z,3.00
2023-03-13T23:30:09.697Z,2.70
2023-03-13T23:33:13.790Z,3.92
2023-03-13T23:36:21.012Z,2.75
2023-03-13T23:39:25.030Z,3.15
2023-03-13T23:42:31.608Z,3.08
2023-03-13T23:45:38.793Z,3.00
2023-03-13T23:48:45.262Z,2.95
2023-03-13T23:51:49.164Z,2.33
2023-03-13T23:54:55.591Z,3.42
2023-03-13T23:57:59.810Z,2.85
